createdAt,value
2018-12-25T00:05:11.829Z,97.96
2018-12-25T00:11:38.657Z,98.29
2018-12-25T00:18:05.492Z,97.09
2018-12-25T00:24:31.320Z,97.08
2018-12-25T00:30:56.891Z,97.35
2018-12-25T00:37:12.510Z,97.79
2018-12-25T00:43:01.082Z,97.57
2018-12-25T00:49:24.883Z,97.24
2018-12-25T00:55:50.734Z,96.81
2018-12-25T01:02:17.403Z,97.60
2018-12-25T01:08:45.298Z,97.81
2018-12-25T01:15:11.418Z,97.31
2018-12-25T01:21:39.044Z,97.04
2018-12-25T01:28:02.846Z,97.07
2018-12-25T01:34:29.889Z,97.12
2018-12-25T01:44:03.575Z,96.63
2018-12-25T01:50:32.421Z,96.09
2018-12-25T01:56:58.242Z,96.79
2018-12-25T02:03:24.065Z,96.59
2018-12-25T02:09:49.647Z,95.88
2018-12-25T02:16:13.442Z,96.30
2018-12-25T02:22:44.207Z,96.68
2018-12-25T02:29:15.421Z,97.14
2018-12-25T02:35:53.126Z,96.68
2018-12-25T02:45:20.986Z,95.80
2018-12-25T02:51:59.932Z,96.47
2018-12-25T02:58:38.883Z,96.13
2018-12-25T03:05:18.520Z,95.83
2018-12-25T03:12:01.586Z,95.45
2018-12-25T03:18:42.799Z,95.43
2018-12-25T03:25:09.630Z,95.89
2018-12-25T03:31:37.474Z,95.98
2018-12-25T03:38:03.289Z,96.21
2018-12-25T03:43:53.205Z,95.67
2018-12-25T03:50:22.615Z,95.52
2018-12-25T03:57:05.610Z,95.82
2018-12-25T04:03:44.347Z,95.98
2018-12-25T04:10:24.121Z,95.35
2018-12-25T04:17:09.520Z,95.94
2018-12-25T04:23:35.343Z,95.74
2018-12-25T04:30:02.971Z,95.46
2018-12-25T04:36:30.013Z,95.80
2018-12-25T04:42:45.659Z,95.70
2018-12-25T04:49:02.465Z,95.06
2018-12-25T04:55:32.038Z,95.13
2018-12-25T05:01:58.143Z,95.39
2018-12-25T05:08:24.983Z,95.02
2018-12-25T05:14:49.781Z,95.06
2018-12-25T05:21:16.256Z,95.27
2018-12-25T05:27:57.583Z,95.09
2018-12-25T05:34:25.286Z,95.01
2018-12-25T05:40:53.055Z,95.37
2018-12-25T05:47:20.088Z,94.81
2018-12-25T05:53:36.822Z,94.54
2018-12-25T06:00:19.813Z,95.25
2018-12-25T06:06:56.741Z,94.55
2018-12-25T06:13:40.404Z,94.85
2018-12-25T06:20:35.862Z,94.75
2018-12-25T06:27:04.700Z,95.33
2018-12-25T06:33:32.581Z,94.53
2018-12-25T06:40:06.398Z,95.03
2018-12-25T06:45:56.913Z,95.09
2018-12-25T06:59:23.902Z,94.28
2018-12-25T07:05:55.784Z,94.81
2018-12-25T07:12:21.608Z,95.12
2018-12-25T07:18:49.285Z,96.30
2018-12-25T07:25:18.302Z,96.73
2018-12-25T07:31:44.122Z,96.14
2018-12-25T07:38:09.693Z,96.26
2018-12-25T07:50:53.208Z,94.97
2018-12-25T08:01:07.582Z,94.56
2018-12-25T08:07:39.462Z,94.78
2018-12-25T08:14:07.099Z,94.92
2018-12-25T08:20:34.130Z,95.40
2018-12-25T08:27:06.011Z,95.15
2018-12-25T08:33:36.523Z,95.47
2018-12-25T08:40:07.295Z,95.00
2018-12-25T08:45:55.869Z,95.09
2018-12-25T08:52:25.812Z,95.30
2018-12-25T09:02:39.130Z,95.60
2018-12-25T09:09:20.835Z,95.29
2018-12-25T09:16:05.923Z,95.80
2018-12-25T09:22:51.850Z,95.88
2018-12-25T09:29:35.131Z,96.21
2018-12-25T09:36:27.210Z,96.57
2018-12-25T09:42:31.510Z,96.67
2018-12-25T09:49:12.792Z,96.69
2018-12-25T09:55:47.376Z,97.19
2018-12-25T10:06:03.800Z,97.66
2018-12-25T10:12:43.759Z,97.73
2018-12-25T10:19:27.390Z,98.46
2018-12-25T10:26:06.443Z,98.75
2018-12-25T10:32:43.641Z,98.90
2018-12-25T10:39:26.405Z,99.66
2018-12-25T10:46:05.362Z,99.48
2018-12-25T10:52:44.322Z,100.00
2018-12-25T10:59:11.364Z,100.00
2018-12-25T11:09:04.918Z,100.00
2018-12-25T11:15:48.229Z,100.00
2018-12-25T11:22:25.160Z,100.00
2018-12-25T11:29:04.108Z,100.00
2018-12-25T11:35:45.091Z,100.00
2018-12-25T11:42:22.024Z,100.00
2018-12-25T11:49:00.715Z,100.00
2018-12-25T11:55:30.827Z,100.00
2018-12-25T12:01:56.112Z,100.00
2018-12-25T12:12:13.753Z,100.00
2018-12-25T12:18:49.470Z,100.00
2018-12-25T12:25:28.428Z,100.00
2018-12-25T12:32:07.587Z,100.00
2018-12-25T12:38:47.977Z,100.00
2018-12-25T12:44:51.135Z,100.00
2018-12-25T12:51:30.093Z,100.00
2018-12-25T12:58:09.176Z,100.00
2018-12-25T13:01:04.525Z,100.00
2018-12-25T13:06:56.261Z,100.00
2018-12-25T13:13:22.080Z,100.00
2018-12-25T13:20:00.775Z,100.00
2018-12-25T13:26:39.982Z,100.00
2018-12-25T13:33:16.911Z,100.00
2018-12-25T13:39:55.870Z,100.00
2018-12-25T13:46:32.803Z,100.00
2018-12-25T13:53:02.846Z,100.00
2018-12-25T13:59:26.261Z,100.00
2018-12-25T14:09:40.540Z,100.00
2018-12-25T14:16:26.558Z,100.00
2018-12-25T14:22:54.079Z,100.00
2018-12-25T14:29:21.984Z,100.00
2018-12-25T14:35:47.826Z,100.00
2018-12-25T14:42:13.881Z,100.00
2018-12-25T14:48:37.479Z,100.00
2018-12-25T14:55:05.387Z,100.00
2018-12-25T15:01:32.351Z,100.00
2018-12-25T15:11:46.432Z,100.00
2018-12-25T15:18:15.992Z,100.00
2018-12-25T15:24:07.436Z,100.00
2018-12-25T15:30:33.598Z,100.00
2018-12-25T15:37:02.803Z,100.00
2018-12-25T15:43:34.359Z,100.00
2018-12-25T15:50:17.309Z,100.00
2018-12-25T15:56:45.150Z,100.00
2018-12-25T16:03:11.983Z,100.00
2018-12-25T16:13:14.566Z,100.00
2018-12-25T16:19:40.769Z,100.00
2018-12-25T16:25:34.272Z,100.00
2018-12-25T16:32:02.118Z,100.00
2018-12-25T16:38:40.761Z,100.00
2018-12-25T16:45:20.011Z,100.00
2018-12-25T16:51:58.962Z,100.00
2018-12-25T16:58:37.912Z,100.00
2018-12-25T17:05:18.634Z,100.00
2018-12-25T17:15:22.862Z,100.00
2018-12-25T17:22:02.592Z,99.77
2018-12-25T17:28:28.639Z,100.00
2018-12-25T17:34:55.101Z,100.00
2018-12-25T17:41:23.001Z,100.00
2018-12-25T17:47:50.907Z,100.00
2018-12-25T17:54:18.797Z,100.00
2018-12-25T18:00:43.800Z,100.00
2018-12-25T18:07:13.660Z,99.90
2018-12-25T18:17:18.755Z,99.42
2018-12-25T18:23:17.995Z,99.49
2018-12-25T18:29:49.081Z,99.67
2018-12-25T18:36:14.901Z,99.80
2018-12-25T18:42:42.750Z,99.80
2018-12-25T18:49:08.352Z,99.57
2018-12-25T18:55:35.487Z,99.76
2018-12-25T19:02:02.925Z,99.69
2018-12-25T19:08:42.182Z,99.36
2018-12-25T19:18:56.265Z,99.17
2018-12-25T19:24:48.560Z,99.12
2018-12-25T19:31:12.356Z,99.64
2018-12-25T19:37:56.226Z,99.85
2018-12-25T19:44:22.372Z,99.82
2018-12-25T19:50:48.193Z,99.70
2018-12-25T19:56:42.646Z,99.12
2018-12-25T20:03:24.680Z,98.77
2018-12-25T20:10:21.462Z,98.29
2018-12-25T20:21:05.785Z,98.93
2018-12-25T20:28:21.501Z,99.13
2018-12-25T20:35:46.908Z,98.68
2018-12-25T20:43:12.320Z,98.62
2018-12-25T20:50:35.718Z,98.21
2018-12-25T20:57:30.830Z,98.70
2018-12-25T21:04:48.161Z,98.79
2018-12-25T21:12:24.372Z,98.60
2018-12-25T21:23:31.279Z,98.65
2018-12-25T21:30:00.140Z,98.35
2018-12-25T21:36:37.067Z,98.54
2018-12-25T21:43:03.505Z,98.61
2018-12-25T21:49:48.900Z,98.35
2018-12-25T21:56:18.765Z,97.84
2018-12-25T22:03:01.761Z,97.47
2018-12-25T22:09:41.711Z,97.44
2018-12-25T22:16:20.747Z,97.43
2018-12-25T22:26:23.284Z,97.52
2018-12-25T22:33:02.578Z,97.41
2018-12-25T22:39:43.549Z,97.03
2018-12-25T22:46:22.502Z,97.59
2018-12-25T22:53:03.470Z,97.57
2018-12-25T22:59:11.856Z,97.33
2018-12-25T23:05:52.868Z,96.93
2018-12-25T23:12:31.820Z,96.81
2018-12-25T23:19:10.776Z,97.08
2018-12-25T23:28:39.312Z,97.19
2018-12-25T23:35:05.449Z,96.90
2018-12-25T23:41:31.019Z,97.11
2018-12-25T23:47:56.863Z,97.23
2018-12-25T23:54:25.580Z,97.07
